Time;durP1;ratioP1;P1;durP2;ratioP2;P2;SDS_P1;SDS_P2;PMS_P1;PMS_P2;Temp;Humidity;BMP_temperature;BMP_pressure;BME280_temperature;BME280_humidity;BME280_pressure;Samples;Min_cycle;Max_cycle;Signal;HPM_P1;HPM_P2
2021/04/10 00:00:26;;;;;;;6.82;2.50;;;7.50;76.70;;;;;;2083932;28;20033;-83
2021/04/10 00:01:30;;;;;;;5.68;2.60;;;7.50;76.80;;;;;;2082863;28;20025;-84
2021/04/10 00:02:30;;;;;;;7.22;2.50;;;7.50;76.80;;;;;;2081503;28;20472;-84
2021/04/10 00:03:31;;;;;;;6.53;2.20;;;7.50;76.90;;;;;;2081671;28;20032;-84
2021/04/10 00:04:32;;;;;;;8.73;2.47;;;7.50;76.90;;;;;;2073857;28;20480;-84
2021/04/10 00:05:32;;;;;;;7.10;2.95;;;7.50;77.00;;;;;;2081718;28;20060;-83
2021/04/10 00:06:33;;;;;;;6.80;2.13;;;7.40;77.60;;;;;;2076570;28;20042;-83
2021/04/10 00:07:34;;;;;;;4.93;2.08;;;7.40;77.00;;;;;;2063826;28;20030;-84
2021/04/10 00:08:35;;;;;;;8.35;2.35;;;7.40;77.10;;;;;;2073502;28;20523;-84
2021/04/10 00:09:35;;;;;;;7.43;2.45;;;7.40;77.10;;;;;;2075288;28;20029;-84
2021/04/10 00:10:36;;;;;;;5.30;2.03;;;7.40;77.20;;;;;;2057456;28;20037;-83
2021/04/10 00:11:37;;;;;;;6.13;2.42;;;7.50;77.20;;;;;;2063629;28;20030;-84
2021/04/10 00:12:38;;;;;;;5.80;2.20;;;7.40;77.20;;;;;;2071644;28;20165;-83
2021/04/10 00:13:39;;;;;;;6.35;2.38;;;7.40;77.20;;;;;;2065475;28;20034;-83
2021/04/10 00:14:40;;;;;;;5.70;1.80;;;7.40;77.20;;;;;;2067998;28;20033;-84
2021/04/10 00:15:40;;;;;;;7.03;2.25;;;7.40;77.30;;;;;;2066906;28;20125;-84
2021/04/10 00:16:41;;;;;;;5.18;2.10;;;7.40;77.30;;;;;;2085546;28;20483;-84
2021/04/10 00:17:42;;;;;;;7.00;2.30;;;7.30;77.30;;;;;;2080530;28;20033;-84
2021/04/10 00:18:46;;;;;;;5.50;2.20;;;7.30;77.30;;;;;;2072175;28;20113;-84
2021/04/10 00:19:47;;;;;;;6.75;2.58;;;7.30;77.50;;;;;;2076880;28;20029;-84
2021/04/10 00:20:47;;;;;;;5.75;2.50;;;7.30;77.60;;;;;;2070905;28;20033;-83
2021/04/10 00:21:48;;;;;;;6.53;2.20;;;7.20;77.50;;;;;;2081326;28;20022;-83
2021/04/10 00:22:49;;;;;;;8.35;2.38;;;7.20;77.60;;;;;;2086596;28;20037;-84
2021/04/10 00:23:49;;;;;;;5.70;2.10;;;7.20;77.60;;;;;;2081398;28;20030;-83
2021/04/10 00:24:50;;;;;;;10.18;2.55;;;7.20;77.70;;;;;;2078534;28;20555;-83
2021/04/10 00:25:51;;;;;;;6.85;2.25;;;7.20;77.80;;;;;;2079814;28;21468;-83
2021/04/10 00:26:52;;;;;;;6.43;2.40;;;7.20;77.80;;;;;;2072785;28;20029;-83
2021/04/10 00:27:53;;;;;;;7.90;2.78;;;7.20;77.90;;;;;;2065150;28;20062;-83
2021/04/10 00:28:54;;;;;;;7.32;2.22;;;7.20;77.80;;;;;;2073330;28;20022;-83
2021/04/10 00:29:54;;;;;;;6.75;2.40;;;7.10;77.80;;;;;;2063708;28;20551;-83
2021/04/10 00:31:06;;;;;;;5.95;2.40;;;7.10;77.90;;;;;;2073225;28;20516;-83
2021/04/10 00:32:07;;;;;;;5.85;2.15;;;7.10;78.00;;;;;;2080475;28;20563;-84
2021/04/10 00:33:08;;;;;;;6.63;2.40;;;7.10;77.90;;;;;;2075003;28;20030;-83
2021/04/10 00:34:08;;;;;;;7.85;2.75;;;7.10;78.00;;;;;;2072473;28;20038;-83
2021/04/10 00:35:10;;;;;;;8.57;2.33;;;7.10;78.00;;;;;;2073262;28;20121;-84
2021/04/10 00:36:10;;;;;;;5.35;2.30;;;7.10;78.00;;;;;;2073125;28;20045;-83
2021/04/10 00:37:11;;;;;;;6.40;2.30;;;7.10;78.00;;;;;;2062875;28;20038;-84
2021/04/10 00:38:12;;;;;;;6.03;1.85;;;7.10;78.00;;;;;;2056878;28;20038;-84
2021/04/10 00:39:13;;;;;;;7.80;2.10;;;7.10;78.00;;;;;;2055537;28;20042;-84
2021/04/10 00:40:15;;;;;;;5.55;1.70;;;7.10;78.00;;;;;;2065632;28;20033;-84
2021/04/10 00:41:16;;;;;;;6.07;2.20;;;7.10;78.00;;;;;;2080482;28;20025;-85
2021/04/10 00:42:16;;;;;;;8.45;2.20;;;7.10;77.90;;;;;;2072911;28;20125;-83
2021/04/10 00:43:17;;;;;;;7.65;2.13;;;7.10;77.90;;;;;;2080463;28;20112;-83
2021/04/10 00:44:18;;;;;;;5.85;1.80;;;7.10;77.90;;;;;;2081299;28;20022;-84
2021/04/10 00:45:19;;;;;;;4.82;1.80;;;7.10;77.80;;;;;;2073194;28;20485;-84
2021/04/10 00:46:19;;;;;;;6.68;1.92;;;7.10;77.90;;;;;;2079133;28;20451;-84
2021/04/10 00:47:20;;;;;;;4.18;1.70;;;7.10;78.50;;;;;;2076046;28;20045;-84
2021/04/10 00:48:21;;;;;;;6.03;2.00;;;7.10;77.80;;;;;;2081610;28;20067;-84
2021/04/10 00:49:21;;;;;;;3.70;1.80;;;7.10;77.80;;;;;;2073814;28;20037;-83
2021/04/10 00:50:22;;;;;;;7.25;1.90;;;7.10;77.80;;;;;;2074912;28;20053;-84
2021/04/10 00:51:23;;;;;;;5.25;1.80;;;7.10;77.80;;;;;;2087639;28;20051;-84
2021/04/10 00:52:24;;;;;;;4.75;1.70;;;7.10;77.70;;;;;;2081597;28;20021;-84
2021/04/10 00:53:27;;;;;;;5.78;1.83;;;7.10;77.70;;;;;;2086791;28;20029;-84
2021/04/10 00:54:28;;;;;;;4.35;1.50;;;7.10;77.70;;;;;;2091073;28;20017;-83
2021/04/10 00:55:30;;;;;;;6.07;1.85;;;7.20;77.80;;;;;;2090599;28;20423;-84
2021/04/10 00:56:31;;;;;;;4.70;2.00;;;7.10;77.70;;;;;;2073913;28;20086;-84
2021/04/10 00:57:31;;;;;;;6.55;1.92;;;7.10;77.70;;;;;;2065565;28;20089;-83
2021/04/10 00:58:33;;;;;;;5.68;1.80;;;7.10;77.70;;;;;;2080977;28;20043;-83
2021/04/10 00:59:34;;;;;;;7.15;2.38;;;7.10;78.00;;;;;;2081883;28;20480;-84
2021/04/10 01:00:35;;;;;;;6.15;1.90;;;7.10;77.80;;;;;;2084573;28;20035;-83
2021/04/10 01:01:38;;;;;;;5.53;1.92;;;7.10;77.80;;;;;;2065162;28;20026;-83
2021/04/10 01:02:38;;;;;;;7.40;1.80;;;7.10;77.90;;;;;;2058125;28;20039;-84
2021/04/10 01:03:39;;;;;;;8.23;2.17;;;7.10;77.90;;;;;;2073364;28;20417;-83
2021/04/10 01:04:41;;;;;;;5.85;1.80;;;7.10;78.50;;;;;;2066033;28;20064;-84
2021/04/10 01:05:41;;;;;;;4.72;1.70;;;7.10;77.80;;;;;;2069958;28;20128;-83
2021/04/10 01:06:42;;;;;;;5.22;2.00;;;7.00;77.80;;;;;;2077736;28;20029;-84
2021/04/10 01:07:43;;;;;;;5.60;1.80;;;7.00;77.80;;;;;;2049147;28;20462;-83
2021/04/10 01:08:44;;;;;;;5.97;1.90;;;7.00;77.90;;;;;;2063559;28;20125;-83
2021/04/10 01:09:48;;;;;;;5.18;1.90;;;7.00;77.90;;;;;;2073080;28;20037;-83
2021/04/10 01:10:50;;;;;;;4.50;2.22;;;7.00;78.00;;;;;;2081756;28;20427;-84
2021/04/10 01:12:01;;;;;;;6.07;1.77;;;7.00;78.00;;;;;;2086813;28;20025;-83
2021/04/10 01:13:27;;;;;;;5.32;1.77;;;7.00;78.00;;;;;;2080576;28;20029;-84
2021/04/10 01:14:53;;;;;;;4.50;1.60;;;7.00;78.00;;;;;;2083756;28;20061;-84
2021/04/10 01:16:15;;;;;;;4.45;1.45;;;7.00;77.90;;;;;;2084391;28;20037;-84
2021/04/10 01:17:21;;;;;;;4.95;1.60;;;7.00;77.90;;;;;;2084782;28;20032;-84
2021/04/10 01:18:26;;;;;;;3.70;1.42;;;6.90;77.80;;;;;;2086396;28;20082;-84
2021/04/10 01:19:40;;;;;;;4.95;1.55;;;6.90;77.80;;;;;;2089383;28;20017;-83
2021/04/10 01:21:12;;;;;;;5.43;1.67;;;6.90;77.80;;;;;;2081625;28;20029;-83
2021/04/10 01:22:34;;;;;;;5.22;1.60;;;6.90;77.90;;;;;;2076259;28;20117;-84
2021/04/10 01:24:12;;;;;;;5.45;1.85;;;6.90;77.90;;;;;;2087068;28;20029;-84
2021/04/10 01:25:31;;;;;;;4.72;1.90;;;6.90;77.90;;;;;;2090203;28;20075;-84
2021/04/10 01:26:47;;;;;;;6.47;1.85;;;6.90;77.80;;;;;;2082159;28;20071;-84
2021/04/10 01:27:54;;;;;;;6.35;1.77;;;6.90;77.90;;;;;;2083077;28;20033;-83
2021/04/10 01:29:01;;;;;;;3.03;1.40;;;6.90;77.80;;;;;;2081165;28;20030;-84
2021/04/10 01:30:08;;;;;;;4.53;1.67;;;6.90;77.90;;;;;;2083405;28;20057;-84
2021/04/10 01:31:09;;;;;;;3.40;1.50;;;6.80;77.80;;;;;;2081417;28;20032;-84
2021/04/10 01:32:13;;;;;;;5.35;1.65;;;6.90;77.90;;;;;;2081186;28;20033;-84
2021/04/10 01:33:18;;;;;;;4.80;1.73;;;6.90;77.90;;;;;;2078535;28;20554;-84
2021/04/10 01:34:27;;;;;;;4.93;1.73;;;6.90;77.90;;;;;;2073569;28;20022;-83
2021/04/10 01:35:35;;;;;;;6.82;1.70;;;6.90;78.60;;;;;;2075783;28;20079;-84
2021/04/10 01:36:39;;;;;;;5.88;1.80;;;6.90;78.00;;;;;;2088074;28;20029;-84
2021/04/10 01:37:50;;;;;;;4.70;1.80;;;6.90;78.00;;;;;;2088486;28;20025;-83
2021/04/10 01:38:53;;;;;;;4.95;1.77;;;6.80;78.00;;;;;;2089497;28;20050;-83
2021/04/10 01:39:55;;;;;;;8.65;1.85;;;6.80;78.00;;;;;;2087867;28;20025;-84
2021/04/10 01:41:01;;;;;;;5.03;1.88;;;6.80;78.10;;;;;;2075894;28;20036;-83
2021/04/10 01:42:03;;;;;;;6.40;1.98;;;6.80;78.20;;;;;;2081517;28;20013;-83
2021/04/10 01:43:07;;;;;;;5.43;1.88;;;6.80;78.20;;;;;;2080966;28;20533;-84
2021/04/10 01:44:08;;;;;;;5.05;1.73;;;6.80;78.20;;;;;;2072948;28;20022;-84
2021/04/10 01:45:10;;;;;;;6.75;2.25;;;6.80;78.20;;;;;;2083025;28;20511;-84
2021/04/10 01:46:12;;;;;;;6.72;2.00;;;6.80;78.30;;;;;;2080868;28;20040;-84
2021/04/10 01:47:16;;;;;;;6.45;2.08;;;6.80;78.40;;;;;;2076946;28;20045;-84
2021/04/10 01:48:17;;;;;;;5.93;2.25;;;6.80;78.40;;;;;;2072991;28;20088;-83
2021/04/10 01:49:18;;;;;;;5.75;1.95;;;6.80;78.50;;;;;;2073121;28;20077;-83
2021/04/10 01:50:20;;;;;;;6.28;2.13;;;6.80;78.50;;;;;;2080973;28;20048;-83
2021/04/10 01:51:21;;;;;;;7.40;2.00;;;6.80;78.50;;;;;;2069495;28;20034;-84
2021/04/10 01:52:23;;;;;;;5.15;1.90;;;6.80;78.60;;;;;;2064703;28;20488;-84
2021/04/10 01:53:25;;;;;;;7.20;2.33;;;6.80;78.50;;;;;;2087713;28;20460;-84
2021/04/10 01:54:26;;;;;;;7.82;1.85;;;6.80;78.60;;;;;;2087894;28;20494;-84
2021/04/10 01:55:28;;;;;;;5.07;1.92;;;6.80;78.60;;;;;;2068004;28;20030;-84
2021/04/10 01:56:31;;;;;;;5.22;1.60;;;6.70;78.60;;;;;;2061221;28;20054;-84
2021/04/10 01:57:32;;;;;;;6.57;2.20;;;6.80;78.70;;;;;;2068116;28;20066;-84
2021/04/10 01:58:35;;;;;;;5.45;2.20;;;6.70;78.60;;;;;;2080878;28;20030;-84
2021/04/10 01:59:43;;;;;;;6.75;1.90;;;6.80;78.70;;;;;;2068320;28;20015;-84
2021/04/10 02:00:45;;;;;;;6.18;2.10;;;6.70;78.70;;;;;;2068391;28;20026;-83
2021/04/10 02:01:50;;;;;;;7.50;2.15;;;6.70;78.70;;;;;;2077026;28;20041;-83
2021/04/10 02:02:52;;;;;;;6.90;1.83;;;6.70;78.80;;;;;;2073082;28;20026;-83
2021/04/10 02:03:54;;;;;;;6.50;2.10;;;6.70;78.70;;;;;;2087832;28;20098;-84
2021/04/10 02:04:56;;;;;;;7.55;2.10;;;6.70;78.80;;;;;;2072802;28;20026;-85
2021/04/10 02:05:57;;;;;;;5.28;2.20;;;6.70;78.80;;;;;;2072891;28;20112;-85
2021/04/10 02:06:59;;;;;;;4.20;1.80;;;6.70;78.80;;;;;;2071090;28;20042;-85
2021/04/10 02:08:05;;;;;;;6.75;2.00;;;6.70;78.90;;;;;;2073111;28;20562;-85
2021/04/10 02:09:09;;;;;;;7.22;1.95;;;6.70;78.90;;;;;;2077154;28;20029;-85
2021/04/10 02:10:17;;;;;;;7.63;2.20;;;6.70;78.90;;;;;;2075016;28;20570;-84
2021/04/10 02:11:19;;;;;;;7.05;2.00;;;6.70;79.00;;;;;;2083784;28;20071;-84
2021/04/10 02:12:24;;;;;;;4.45;2.00;;;6.70;79.00;;;;;;2069096;28;20052;-84
2021/04/10 02:13:25;;;;;;;4.35;1.90;;;6.60;79.00;;;;;;2058061;28;20073;-84
2021/04/10 02:14:29;;;;;;;5.25;2.20;;;6.60;79.00;;;;;;2064519;28;20093;-84
2021/04/10 02:15:31;;;;;;;4.70;1.83;;;6.70;79.10;;;;;;2065057;28;20029;-85
2021/04/10 02:16:32;;;;;;;5.95;1.80;;;6.60;79.00;;;;;;2070998;28;20042;-85
2021/04/10 02:17:33;;;;;;;8.20;2.10;;;6.70;79.10;;;;;;2065438;28;20117;-85
2021/04/10 02:18:35;;;;;;;5.88;1.90;;;6.60;79.00;;;;;;2064609;28;20081;-85
2021/04/10 02:19:36;;;;;;;6.57;2.33;;;6.60;79.10;;;;;;2064962;28;20022;-85
2021/04/10 02:20:38;;;;;;;6.32;1.83;;;6.60;79.10;;;;;;2061715;28;20041;-83
2021/04/10 02:21:40;;;;;;;5.13;2.08;;;6.60;79.10;;;;;;2064277;28;20113;-85
2021/04/10 02:22:52;;;;;;;6.85;2.15;;;6.60;79.10;;;;;;2071418;28;20034;-85
2021/04/10 02:23:54;;;;;;;5.30;1.88;;;6.60;79.20;;;;;;2077293;28;20025;-85
2021/04/10 02:24:54;;;;;;;5.22;1.92;;;6.60;79.20;;;;;;2071984;28;20092;-85
2021/04/10 02:25:55;;;;;;;4.97;1.95;;;6.60;79.20;;;;;;2061103;28;20178;-85
2021/04/10 02:26:56;;;;;;;5.40;1.70;;;6.60;79.20;;;;;;2064297;28;20378;-83
2021/04/10 02:27:57;;;;;;;7.38;2.13;;;6.60;79.20;;;;;;2071788;28;20033;-84
2021/04/10 02:28:58;;;;;;;8.40;2.25;;;6.60;79.20;;;;;;2069044;28;20492;-84
2021/04/10 02:30:00;;;;;;;3.90;1.80;;;6.60;79.20;;;;;;2068062;28;20570;-85
2021/04/10 02:31:03;;;;;;;4.65;1.80;;;6.60;79.30;;;;;;2068332;28;20436;-85
2021/04/10 02:32:12;;;;;;;4.22;1.73;;;6.60;79.30;;;;;;2087034;28;20032;-84
2021/04/10 02:33:21;;;;;;;5.07;1.73;;;6.60;79.40;;;;;;2080340;28;20021;-84
2021/04/10 02:34:25;;;;;;;4.55;1.95;;;6.60;79.40;;;;;;2085962;28;20123;-85
2021/04/10 02:35:33;;;;;;;5.95;2.20;;;6.60;79.30;;;;;;2080924;28;20030;-85
2021/04/10 02:36:36;;;;;;;6.10;2.17;;;6.60;79.40;;;;;;2077146;28;20022;-84
2021/04/10 02:37:38;;;;;;;5.25;1.95;;;6.60;79.40;;;;;;2080775;28;20569;-84
2021/04/10 02:38:41;;;;;;;6.45;2.28;;;6.60;79.40;;;;;;2089017;28;20460;-85
2021/04/10 02:39:43;;;;;;;5.82;2.00;;;6.60;79.50;;;;;;2080381;28;20037;-85
2021/04/10 02:40:48;;;;;;;5.60;2.20;;;6.60;79.50;;;;;;2083455;28;20439;-85
2021/04/10 02:41:52;;;;;;;8.50;2.28;;;6.60;79.60;;;;;;2080884;28;20104;-84
2021/04/10 02:42:54;;;;;;;6.90;1.80;;;6.50;79.60;;;;;;2084799;28;20047;-85
2021/04/10 02:43:59;;;;;;;6.75;2.13;;;6.50;79.60;;;;;;2072149;28;20064;-85
2021/04/10 02:45:04;;;;;;;5.97;2.17;;;6.50;79.70;;;;;;2058527;28;20497;-84
2021/04/10 02:46:06;;;;;;;6.80;2.67;;;6.50;79.90;;;;;;2074203;28;20185;-84
2021/04/10 02:47:08;;;;;;;6.03;2.20;;;6.50;79.90;;;;;;2080187;28;20104;-84
2021/04/10 02:48:19;;;;;;;6.43;2.58;;;6.40;79.90;;;;;;2080811;28;20379;-84
2021/04/10 02:49:27;;;;;;;6.47;2.30;;;6.40;80.00;;;;;;2082605;28;20484;-84
2021/04/10 02:50:29;;;;;;;6.28;2.17;;;6.40;80.00;;;;;;2075043;28;20053;-84
2021/04/10 02:51:52;;;;;;;6.35;2.00;;;6.40;80.00;;;;;;2069901;28;20074;-85
2021/04/10 02:52:56;;;;;;;6.68;2.20;;;6.40;80.00;;;;;;2084175;28;20025;-84
2021/04/10 02:53:57;;;;;;;4.30;2.05;;;6.40;79.90;;;;;;2088589;28;20052;-84
2021/04/10 02:55:02;;;;;;;6.07;2.33;;;6.40;79.90;;;;;;2082039;28;20056;-84
2021/04/10 02:56:06;;;;;;;7.88;2.50;;;6.40;80.00;;;;;;2082087;28;20033;-84
2021/04/10 02:57:12;;;;;;;6.22;2.33;;;6.40;80.10;;;;;;2090036;28;20056;-84
2021/04/10 02:58:14;;;;;;;5.32;2.50;;;6.40;80.10;;;;;;2075260;28;20018;-84
2021/04/10 02:59:16;;;;;;;7.05;2.25;;;6.40;80.10;;;;;;2082418;28;20471;-85
2021/04/10 03:00:18;;;;;;;7.03;2.50;;;6.40;80.20;;;;;;2082200;28;20116;-85
2021/04/10 03:01:19;;;;;;;6.45;2.20;;;6.40;80.20;;;;;;2078659;28;20049;-84
2021/04/10 03:02:22;;;;;;;9.55;2.70;;;6.40;80.20;;;;;;2078948;28;20040;-85
2021/04/10 03:03:23;;;;;;;5.25;2.15;;;6.30;80.20;;;;;;2070151;28;20042;-85
2021/04/10 03:04:24;;;;;;;6.97;2.40;;;6.30;80.20;;;;;;2072962;28;20615;-84
2021/04/10 03:05:26;;;;;;;5.05;2.15;;;6.30;80.30;;;;;;2081664;28;20029;-84
2021/04/10 03:06:29;;;;;;;5.78;2.05;;;6.40;80.30;;;;;;2062935;28;20030;-85
2021/04/10 03:07:30;;;;;;;5.63;2.22;;;6.30;80.30;;;;;;2066812;28;20027;-85
2021/04/10 03:08:31;;;;;;;4.85;2.20;;;6.30;80.30;;;;;;2073182;28;20510;-85
2021/04/10 03:09:32;;;;;;;7.40;2.08;;;6.30;80.30;;;;;;2064301;28;20505;-85
2021/04/10 03:10:33;;;;;;;6.47;2.70;;;6.30;80.40;;;;;;2065826;28;20088;-85
2021/04/10 03:11:35;;;;;;;4.30;2.20;;;6.30;80.40;;;;;;2073103;28;20524;-85
2021/04/10 03:12:36;;;;;;;5.10;2.38;;;6.30;80.40;;;;;;2073740;28;20574;-84
2021/04/10 03:13:38;;;;;;;4.60;1.80;;;6.30;80.40;;;;;;2080216;28;20029;-84
2021/04/10 03:14:40;;;;;;;5.60;2.20;;;6.30;80.50;;;;;;2066290;28;20508;-83
2021/04/10 03:15:41;;;;;;;5.03;2.25;;;6.30;80.50;;;;;;2074203;28;20034;-84
2021/04/10 03:16:43;;;;;;;5.68;2.28;;;6.30;80.50;;;;;;2057827;28;20122;-84
2021/04/10 03:17:45;;;;;;;6.13;2.28;;;6.30;80.60;;;;;;2050001;28;20025;-84
2021/04/10 03:18:50;;;;;;;7.00;2.50;;;6.30;80.60;;;;;;2064320;28;20026;-85
2021/04/10 03:19:51;;;;;;;6.32;2.45;;;6.30;80.70;;;;;;2077640;28;20476;-83
2021/04/10 03:20:52;;;;;;;6.47;2.25;;;6.30;80.70;;;;;;2082897;28;20483;-84
2021/04/10 03:21:53;;;;;;;5.60;2.55;;;6.30;80.70;;;;;;2065636;28;20113;-84
2021/04/10 03:22:53;;;;;;;5.22;2.20;;;6.20;80.70;;;;;;2069457;28;20034;-84
2021/04/10 03:23:54;;;;;;;4.97;2.33;;;6.20;81.40;;;;;;2066883;28;20030;-84
2021/04/10 03:24:55;;;;;;;4.90;2.20;;;6.20;81.40;;;;;;2073142;28;20041;-83
2021/04/10 03:25:58;;;;;;;5.60;2.20;;;6.20;80.90;;;;;;2073597;28;20923;-84
2021/04/10 03:26:59;;;;;;;6.90;2.45;;;6.20;80.90;;;;;;2076987;28;20403;-84
2021/04/10 03:28:00;;;;;;;5.30;2.17;;;6.20;81.50;;;;;;2081922;28;20503;-83
2021/04/10 03:29:03;;;;;;;4.95;2.17;;;6.20;80.90;;;;;;2081579;28;20502;-84
2021/04/10 03:30:08;;;;;;;6.53;2.35;;;6.20;81.00;;;;;;2072097;28;20121;-83
2021/04/10 03:31:09;;;;;;;4.57;2.00;;;6.20;81.00;;;;;;2074386;28;20426;-84
2021/04/10 03:32:10;;;;;;;5.55;2.35;;;6.20;81.00;;;;;;2068745;28;20018;-84
2021/04/10 03:33:11;;;;;;;6.28;2.45;;;6.10;81.00;;;;;;2064595;28;20027;-84
2021/04/10 03:34:12;;;;;;;6.47;2.35;;;6.20;81.00;;;;;;2065663;28;20125;-84
2021/04/10 03:35:13;;;;;;;5.75;2.38;;;6.20;81.00;;;;;;2065805;28;20191;-84
2021/04/10 03:36:14;;;;;;;5.20;1.92;;;6.20;81.10;;;;;;2065763;28;20050;-85
2021/04/10 03:37:15;;;;;;;6.63;2.38;;;6.20;81.10;;;;;;2058537;28;20023;-84
2021/04/10 03:38:16;;;;;;;7.43;2.28;;;6.20;81.10;;;;;;2053480;28;20525;-84
2021/04/10 03:39:16;;;;;;;5.78;2.28;;;6.20;81.10;;;;;;2065732;28;20046;-84
2021/04/10 03:40:17;;;;;;;7.35;2.80;;;6.20;81.10;;;;;;2088579;28;20466;-84
2021/04/10 03:41:22;;;;;;;8.50;3.15;;;6.20;81.10;;;;;;2089096;28;20065;-84
2021/04/10 03:42:42;;;;;;;7.10;2.15;;;6.20;81.10;;;;;;2075660;28;20018;-84
2021/04/10 03:43:43;;;;;;;7.32;2.42;;;6.20;81.10;;;;;;2081930;28;20403;-83
2021/04/10 03:44:44;;;;;;;6.00;2.20;;;6.20;81.10;;;;;;2075392;28;20124;-83
2021/04/10 03:45:44;;;;;;;5.20;2.50;;;6.20;81.10;;;;;;2065616;28;20098;-84
2021/04/10 03:46:45;;;;;;;5.30;2.38;;;6.20;81.10;;;;;;2073606;28;20517;-83
2021/04/10 03:47:46;;;;;;;7.18;2.25;;;6.20;81.20;;;;;;2089330;28;20475;-84
2021/04/10 03:48:47;;;;;;;11.00;2.58;;;6.20;81.20;;;;;;2081705;28;20041;-84
2021/04/10 03:49:48;;;;;;;6.97;2.58;;;6.20;81.20;;;;;;2071076;28;20037;-84
2021/04/10 03:50:49;;;;;;;6.95;2.45;;;6.10;81.10;;;;;;2072989;28;20049;-84
2021/04/10 03:51:49;;;;;;;6.20;2.38;;;6.10;81.10;;;;;;2060342;28;20029;-84
2021/04/10 03:52:50;;;;;;;5.88;2.10;;;6.20;81.20;;;;;;2065462;28;20034;-84
2021/04/10 03:53:51;;;;;;;5.38;2.35;;;6.20;81.20;;;;;;2073639;28;20065;-84
2021/04/10 03:54:51;;;;;;;5.20;2.60;;;6.20;81.20;;;;;;2075260;28;20038;-84
2021/04/10 03:55:52;;;;;;;6.82;2.60;;;6.10;81.10;;;;;;2081715;28;20088;-84
2021/04/10 03:56:53;;;;;;;4.75;2.17;;;6.20;81.20;;;;;;2076980;28;20115;-84
2021/04/10 03:57:54;;;;;;;6.40;2.33;;;6.20;81.80;;;;;;2065541;28;20054;-84
2021/04/10 03:58:54;;;;;;;5.43;2.15;;;6.20;81.20;;;;;;2065481;28;20481;-84
2021/04/10 03:59:55;;;;;;;5.45;2.30;;;6.10;81.10;;;;;;2072151;28;20030;-84
2021/04/10 04:00:56;;;;;;;5.32;2.35;;;6.20;81.20;;;;;;2069575;28;20068;-84
2021/04/10 04:01:56;;;;;;;6.15;2.50;;;6.20;81.20;;;;;;2071130;28;20472;-84
2021/04/10 04:02:57;;;;;;;7.75;2.33;;;6.20;81.20;;;;;;2074087;28;20115;-85
2021/04/10 04:03:58;;;;;;;6.47;2.30;;;6.20;81.30;;;;;;2072957;28;20038;-84
2021/04/10 04:04:59;;;;;;;6.82;2.63;;;6.20;81.30;;;;;;2056788;28;20030;-82
2021/04/10 04:05:59;;;;;;;7.75;2.60;;;6.20;81.30;;;;;;2056644;28;20034;-84
2021/04/10 04:07:01;;;;;;;6.78;2.88;;;6.20;81.30;;;;;;2078495;28;20038;-83
2021/04/10 04:08:02;;;;;;;6.43;2.67;;;6.10;81.30;;;;;;2081036;28;20039;-83
2021/04/10 04:09:02;;;;;;;5.68;2.47;;;6.20;81.30;;;;;;2073463;28;20034;-83
2021/04/10 04:10:04;;;;;;;6.50;2.45;;;6.10;81.20;;;;;;2072120;28;20029;-83
2021/04/10 04:11:08;;;;;;;5.68;2.72;;;6.10;81.30;;;;;;2070471;28;20037;-83
2021/04/10 04:12:09;;;;;;;6.22;2.58;;;6.10;81.30;;;;;;2082072;28;20379;-83
2021/04/10 04:13:09;;;;;;;7.28;2.67;;;6.10;81.30;;;;;;2081409;28;20119;-83
2021/04/10 04:14:10;;;;;;;8.27;2.65;;;6.20;81.30;;;;;;2065559;28;20601;-83
2021/04/10 04:15:11;;;;;;;8.25;2.85;;;6.20;81.30;;;;;;2080096;28;20039;-83
2021/04/10 04:16:12;;;;;;;8.00;2.63;;;6.20;81.30;;;;;;2081494;28;20479;-83
2021/04/10 04:17:12;;;;;;;7.25;2.95;;;6.10;81.30;;;;;;2073736;28;20018;-84
2021/04/10 04:18:16;;;;;;;6.95;2.83;;;6.10;81.30;;;;;;2081954;28;20483;-84
2021/04/10 04:19:22;;;;;;;6.28;3.00;;;6.10;81.30;;;;;;2075221;28;20057;-85
2021/04/10 04:20:23;;;;;;;8.40;3.10;;;6.10;81.30;;;;;;2076250;28;20040;-85
2021/04/10 04:21:23;;;;;;;7.85;3.15;;;6.10;81.30;;;;;;2073552;28;20112;-85
2021/04/10 04:22:24;;;;;;;5.57;2.58;;;6.10;81.30;;;;;;2072034;28;20080;-85
2021/04/10 04:23:25;;;;;;;8.15;3.00;;;6.20;81.80;;;;;;2073248;28;20022;-85
2021/04/10 04:24:25;;;;;;;8.60;2.50;;;6.20;81.40;;;;;;2073693;28;20492;-84
2021/04/10 04:25:26;;;;;;;8.55;2.88;;;6.20;81.30;;;;;;2065408;28;20551;-84
2021/04/10 04:26:27;;;;;;;6.35;3.10;;;6.10;81.30;;;;;;2057117;28;20026;-85
2021/04/10 04:27:27;;;;;;;5.72;2.80;;;6.20;81.40;;;;;;2071795;28;20026;-85
2021/04/10 04:28:28;;;;;;;7.72;3.10;;;6.10;81.30;;;;;;2072593;28;20061;-85
2021/04/10 04:29:28;;;;;;;7.28;3.17;;;6.10;81.30;;;;;;2061403;28;20504;-84
2021/04/10 04:30:29;;;;;;;8.20;3.53;;;6.10;81.40;;;;;;2064261;28;20037;-84
2021/04/10 04:31:30;;;;;;;7.68;3.70;;;6.10;81.40;;;;;;2067532;28;20501;-84
2021/04/10 04:32:30;;;;;;;7.10;3.38;;;6.10;81.40;;;;;;2081059;28;20035;-84
2021/04/10 04:33:31;;;;;;;8.20;3.47;;;6.10;81.50;;;;;;2081386;28;20072;-84
2021/04/10 04:34:32;;;;;;;8.93;3.10;;;6.10;81.50;;;;;;2080595;28;20021;-84
2021/04/10 04:35:32;;;;;;;7.57;3.10;;;6.10;81.50;;;;;;2065127;28;20034;-84
2021/04/10 04:36:33;;;;;;;7.60;3.17;;;6.10;81.50;;;;;;2075398;28;20025;-84
2021/04/10 04:37:34;;;;;;;8.18;3.30;;;6.10;81.50;;;;;;2073351;28;20026;-84
2021/04/10 04:38:34;;;;;;;6.78;3.22;;;6.10;81.50;;;;;;2065370;28;20571;-84
2021/04/10 04:39:35;;;;;;;5.68;2.78;;;6.10;81.50;;;;;;2076183;28;20075;-84
2021/04/10 04:40:35;;;;;;;7.18;3.35;;;6.10;81.60;;;;;;2051898;28;20066;-84
2021/04/10 04:41:36;;;;;;;8.10;4.15;;;6.10;81.60;;;;;;2051681;28;20031;-83
2021/04/10 04:42:37;;;;;;;7.13;3.15;;;6.10;81.60;;;;;;2060349;28;20108;-83
2021/04/10 04:43:38;;;;;;;7.35;3.42;;;6.10;81.60;;;;;;2073242;28;20040;-83
2021/04/10 04:44:38;;;;;;;5.97;2.67;;;6.10;81.60;;;;;;2073969;28;20092;-83
2021/04/10 04:45:39;;;;;;;8.88;3.10;;;6.10;81.50;;;;;;2073004;28;20164;-83
2021/04/10 04:46:39;;;;;;;7.90;3.20;;;6.10;81.50;;;;;;2072677;28;20029;-83
2021/04/10 04:47:40;;;;;;;8.18;3.10;;;6.10;81.50;;;;;;2064331;28;20505;-84
2021/04/10 04:48:41;;;;;;;7.75;3.20;;;6.10;81.50;;;;;;2075373;28;20104;-84
2021/04/10 04:49:41;;;;;;;6.95;3.08;;;6.10;81.50;;;;;;2079280;28;20022;-83
2021/04/10 04:50:42;;;;;;;7.63;3.22;;;6.10;81.50;;;;;;2067866;28;20046;-83
2021/04/10 04:51:43;;;;;;;7.18;2.90;;;6.10;81.50;;;;;;2064875;28;20057;-83
2021/04/10 04:52:43;;;;;;;8.60;3.08;;;6.10;81.60;;;;;;2081391;28;20032;-83
2021/04/10 04:53:44;;;;;;;7.38;3.10;;;6.10;81.60;;;;;;2081468;28;20026;-83
2021/04/10 04:54:45;;;;;;;9.48;3.40;;;6.10;81.50;;;;;;2089283;28;20036;-83
2021/04/10 04:55:45;;;;;;;8.65;3.00;;;6.10;81.50;;;;;;2064686;28;20038;-82
2021/04/10 04:56:46;;;;;;;6.57;2.95;;;6.10;81.50;;;;;;2057239;28;20066;-83
2021/04/10 04:57:47;;;;;;;7.43;3.20;;;6.10;81.50;;;;;;2088138;28;20065;-83
2021/04/10 04:58:47;;;;;;;7.32;3.00;;;6.10;81.50;;;;;;2073280;28;20037;-83
2021/04/10 04:59:48;;;;;;;8.32;3.05;;;6.10;81.50;;;;;;2072746;28;20061;-83
2021/04/10 05:00:49;;;;;;;6.40;3.20;;;6.10;81.50;;;;;;2076997;28;20029;-82
2021/04/10 05:01:49;;;;;;;10.43;3.30;;;6.10;81.50;;;;;;2068182;28;20105;-82
2021/04/10 05:02:50;;;;;;;7.13;2.70;;;6.10;81.50;;;;;;2064924;28;20468;-83
2021/04/10 05:03:51;;;;;;;8.40;3.20;;;6.10;82.10;;;;;;2081326;28;20222;-83
2021/04/10 05:04:52;;;;;;;9.63;3.10;;;6.10;81.50;;;;;;2088620;28;20040;-83
2021/04/10 05:05:52;;;;;;;6.78;2.65;;;6.00;81.40;;;;;;2073135;28;20057;-84
2021/04/10 05:06:53;;;;;;;9.32;3.10;;;6.10;81.50;;;;;;2068715;28;20464;-83
2021/04/10 05:07:53;;;;;;;6.47;2.60;;;6.10;81.50;;;;;;2063805;28;20034;-84
2021/04/10 05:08:54;;;;;;;8.30;2.80;;;6.00;81.40;;;;;;2072886;28;20030;-84
2021/04/10 05:09:55;;;;;;;6.10;2.75;;;6.10;81.50;;;;;;2077941;28;20071;-84
2021/04/10 05:10:55;;;;;;;7.63;2.95;;;6.10;81.50;;;;;;2080461;28;20037;-83
2021/04/10 05:11:56;;;;;;;8.18;2.55;;;6.10;81.50;;;;;;2080141;28;20509;-83
2021/04/10 05:12:57;;;;;;;6.95;2.92;;;6.10;81.50;;;;;;2081684;28;20131;-84
2021/04/10 05:13:57;;;;;;;7.05;3.28;;;6.10;81.50;;;;;;2074916;28;20061;-84
2021/04/10 05:14:58;;;;;;;9.75;3.25;;;6.10;81.50;;;;;;2069199;28;20034;-84
2021/04/10 05:15:58;;;;;;;7.20;2.92;;;6.00;81.40;;;;;;2058912;28;20047;-83
2021/04/10 05:16:59;;;;;;;9.43;3.33;;;6.00;81.40;;;;;;2061649;28;20491;-84
2021/04/10 05:18:00;;;;;;;8.90;3.00;;;6.10;81.50;;;;;;2074108;28;20030;-84
2021/04/10 05:19:00;;;;;;;7.72;3.15;;;6.10;81.60;;;;;;2073883;28;20084;-83
2021/04/10 05:20:01;;;;;;;6.97;3.03;;;6.00;81.50;;;;;;2073109;28;20029;-84
2021/04/10 05:21:02;;;;;;;8.68;3.25;;;6.00;81.50;;;;;;2081987;28;20033;-83
2021/04/10 05:22:03;;;;;;;6.90;2.97;;;6.00;81.50;;;;;;2076811;28;20026;-84
2021/04/10 05:23:03;;;;;;;9.15;2.97;;;6.00;81.50;;;;;;2074790;28;20478;-83
2021/04/10 05:24:06;;;;;;;6.97;2.75;;;6.00;81.50;;;;;;2074417;28;20470;-84
2021/04/10 05:25:08;;;;;;;6.22;2.65;;;6.00;81.50;;;;;;2081773;28;20033;-84
2021/04/10 05:26:09;;;;;;;4.90;2.63;;;6.00;81.50;;;;;;2072436;28;20570;-84
2021/04/10 05:27:09;;;;;;;5.70;2.50;;;6.10;81.60;;;;;;2078304;28;20033;-84
2021/04/10 05:28:10;;;;;;;5.90;2.35;;;6.00;81.40;;;;;;2064799;28;20048;-84
2021/04/10 05:29:10;;;;;;;7.40;2.92;;;6.10;81.50;;;;;;2056801;28;20069;-84
2021/04/10 05:30:12;;;;;;;7.28;2.90;;;6.10;81.50;;;;;;2056964;28;20113;-84